sensor_id;sensor_type;location;lat;lon;timestamp;pressure;altitude;pressure_sealevel;temperature;humidity
52625;BME280;38519;52.540;13.410;2023-08-24T00:00:40;45250.72;;;-146.17;92.89
52625;BME280;38519;52.540;13.410;2023-08-24T00:03:06;45262.56;;;-146.17;92.61
52625;BME280;38519;52.540;13.410;2023-08-24T00:05:37;45266.53;;;-146.17;92.09
52625;BME280;38519;52.540;13.410;2023-08-24T00:08:06;45242.81;;;-146.17;93.23
52625;BME280;38519;52.540;13.410;2023-08-24T00:10:35;45268.50;;;-146.17;93.17
52625;BME280;38519;52.540;13.410;2023-08-24T00:13:01;45268.50;;;-146.17;93.17
52625;BME280;38519;52.540;13.410;2023-08-24T00:15:26;45242.81;;;-146.17;92.85
52625;BME280;38519;52.540;13.410;2023-08-24T00:17:52;45284.31;;;-146.17;92.92
52625;BME280;38519;52.540;13.410;2023-08-24T00:20:17;45244.78;;;-146.17;92.55
52625;BME280;38519;52.540;13.410;2023-08-24T00:22:43;45278.38;;;-146.17;93.17
52625;BME280;38519;52.540;13.410;2023-08-24T00:25:08;45258.63;;;-146.17;94.11
52625;BME280;38519;52.540;13.410;2023-08-24T00:27:34;45230.94;;;-146.17;93.33
52625;BME280;38519;52.540;13.410;2023-08-24T00:30:02;45280.38;;;-146.17;94.44
52625;BME280;38519;52.540;13.410;2023-08-24T00:32:28;45304.06;;;-146.17;93.79
52625;BME280;38519;52.540;13.410;2023-08-24T00:34:53;45280.38;;;-146.17;96.43
52625;BME280;38519;52.540;13.410;2023-08-24T00:37:19;45268.50;;;-146.17;95.13
52625;BME280;38519;52.540;13.410;2023-08-24T00:39:44;45262.56;;;-146.17;94.34
52625;BME280;38519;52.540;13.410;2023-08-24T00:42:09;45288.25;;;-146.17;95.99
52625;BME280;38519;52.540;13.410;2023-08-24T00:44:39;45284.31;;;-146.17;95.65
52625;BME280;38519;52.540;13.410;2023-08-24T00:47:05;45264.56;;;-146.17;96.37
52625;BME280;38519;52.540;13.410;2023-08-24T00:49:30;45258.63;;;-146.17;96.66
52625;BME280;38519;52.540;13.410;2023-08-24T00:51:55;45296.16;;;-146.17;96.49
52625;BME280;38519;52.540;13.410;2023-08-24T00:54:21;45264.56;;;-146.17;97.52
52625;BME280;38519;52.540;13.410;2023-08-24T00:56:46;45296.16;;;-146.17;97.61
52625;BME280;38519;52.540;13.410;2023-08-24T00:59:11;45276.41;;;-146.17;97.94
52625;BME280;38519;52.540;13.410;2023-08-24T01:01:37;45304.06;;;-146.17;97.85
52625;BME280;38519;52.540;13.410;2023-08-24T01:04:03;45292.22;;;-146.17;97.33
52625;BME280;38519;52.540;13.410;2023-08-24T01:06:28;45315.94;;;-146.17;99.76
52625;BME280;38519;52.540;13.410;2023-08-24T01:08:53;45250.72;;;-146.17;99.37
52625;BME280;38519;52.540;13.410;2023-08-24T01:12:04;45286.28;;;-146.17;97.14
52625;BME280;38519;52.540;13.410;2023-08-24T01:14:21;45278.38;;;-146.17;96.97
52625;BME280;38519;52.540;13.410;2023-08-24T01:17:01;45276.41;;;-146.17;97.47
52625;BME280;38519;52.540;13.410;2023-08-24T01:21:53;45270.47;;;-146.17;96.77
52625;BME280;38519;52.540;13.410;2023-08-24T01:24:23;45242.81;;;-146.17;95.95
52625;BME280;38519;52.540;13.410;2023-08-24T01:26:54;45246.75;;;-146.17;94.62
52625;BME280;38519;52.540;13.410;2023-08-24T01:29:22;45254.66;;;-146.17;95.48
52625;BME280;38519;52.540;13.410;2023-08-24T01:31:48;45256.66;;;-146.17;95.28
52625;BME280;38519;52.540;13.410;2023-08-24T01:34:14;45260.59;;;-146.17;94.87
52625;BME280;38519;52.540;13.410;2023-08-24T01:36:39;45286.28;;;-146.17;94.87
52625;BME280;38519;52.540;13.410;2023-08-24T01:39:50;45292.22;;;-146.17;94.04
52625;BME280;38519;52.540;13.410;2023-08-24T01:41:53;45282.34;;;-146.17;93.82
52625;BME280;38519;52.540;13.410;2023-08-24T01:44:20;45272.47;;;-146.17;93.66
52625;BME280;38519;52.540;13.410;2023-08-24T01:46:46;45228.97;;;-146.17;92.72
52625;BME280;38519;52.540;13.410;2023-08-24T01:52:15;45252.69;;;-146.17;90.76
52625;BME280;38519;52.540;13.410;2023-08-24T01:54:42;45278.38;;;-146.17;89.61
52625;BME280;38519;52.540;13.410;2023-08-24T01:57:09;45298.16;;;-146.17;88.22
52625;BME280;38519;52.540;13.410;2023-08-24T01:59:35;45238.84;;;-146.17;89.07
52625;BME280;38519;52.540;13.410;2023-08-24T02:02:00;45264.56;;;-146.17;88.92
52625;BME280;38519;52.540;13.410;2023-08-24T02:04:25;45244.78;;;-146.17;89.47
52625;BME280;38519;52.540;13.410;2023-08-24T02:06:50;45248.75;;;-146.17;90.10
52625;BME280;38519;52.540;13.410;2023-08-24T02:09:16;45266.53;;;-146.17;90.48
52625;BME280;38519;52.540;13.410;2023-08-24T02:11:41;45256.66;;;-146.17;90.96
52625;BME280;38519;52.540;13.410;2023-08-24T02:14:06;45244.78;;;-146.17;92.39
52625;BME280;38519;52.540;13.410;2023-08-24T02:16:32;45250.72;;;-146.17;92.93
52625;BME280;38519;52.540;13.410;2023-08-24T02:18:58;45234.91;;;-146.17;93.20
52625;BME280;38519;52.540;13.410;2023-08-24T02:21:23;45258.63;;;-146.17;93.03
52625;BME280;38519;52.540;13.410;2023-08-24T02:23:48;45264.56;;;-146.17;92.88
52625;BME280;38519;52.540;13.410;2023-08-24T02:26:13;45276.41;;;-146.17;92.69
52625;BME280;38519;52.540;13.410;2023-08-24T02:28:39;45252.69;;;-146.17;91.02
52625;BME280;38519;52.540;13.410;2023-08-24T02:31:04;45219.09;;;-146.17;90.59
52625;BME280;38519;52.540;13.410;2023-08-24T02:33:30;45246.75;;;-146.17;90.11
52625;BME280;38519;52.540;13.410;2023-08-24T02:35:56;45260.59;;;-146.17;88.65
52625;BME280;38519;52.540;13.410;2023-08-24T02:38:22;45250.72;;;-146.17;88.97
52625;BME280;38519;52.540;13.410;2023-08-24T02:40:48;45240.84;;;-146.17;88.95
52625;BME280;38519;52.540;13.410;2023-08-24T02:43:13;45250.72;;;-146.17;88.53
52625;BME280;38519;52.540;13.410;2023-08-24T02:45:38;45228.97;;;-146.17;88.80
52625;BME280;38519;52.540;13.410;2023-08-24T02:48:04;45268.50;;;-146.17;89.00
52625;BME280;38519;52.540;13.410;2023-08-24T02:50:30;45262.56;;;-146.17;89.16
52625;BME280;38519;52.540;13.410;2023-08-24T02:52:56;45266.53;;;-146.17;88.25
52625;BME280;38519;52.540;13.410;2023-08-24T02:55:23;45260.59;;;-146.17;88.60
52625;BME280;38519;52.540;13.410;2023-08-24T02:57:48;45276.41;;;-146.17;89.17
52625;BME280;38519;52.540;13.410;2023-08-24T03:00:13;45240.84;;;-146.17;88.99
52625;BME280;38519;52.540;13.410;2023-08-24T03:02:40;45242.81;;;-146.17;89.31
52625;BME280;38519;52.540;13.410;2023-08-24T03:05:05;45242.81;;;-146.17;88.62
52625;BME280;38519;52.540;13.410;2023-08-24T03:07:30;45238.84;;;-146.17;87.05
52625;BME280;38519;52.540;13.410;2023-08-24T03:09:56;45260.59;;;-146.17;86.49
52625;BME280;38519;52.540;13.410;2023-08-24T03:12:22;45260.59;;;-146.17;85.76
52625;BME280;38519;52.540;13.410;2023-08-24T03:14:50;45240.84;;;-146.17;85.98
52625;BME280;38519;52.540;13.410;2023-08-24T03:17:15;45236.88;;;-146.17;85.25
52625;BME280;38519;52.540;13.410;2023-08-24T03:19:41;45230.94;;;-146.17;85.39
52625;BME280;38519;52.540;13.410;2023-08-24T03:22:06;45223.06;;;-146.17;84.79
52625;BME280;38519;52.540;13.410;2023-08-24T03:24:31;45260.59;;;-146.17;85.00
52625;BME280;38519;52.540;13.410;2023-08-24T03:26:56;45236.88;;;-146.17;84.84
52625;BME280;38519;52.540;13.410;2023-08-24T03:29:22;45240.84;;;-146.17;85.05
52625;BME280;38519;52.540;13.410;2023-08-24T03:31:47;45232.94;;;-146.17;85.09
52625;BME280;38519;52.540;13.410;2023-08-24T03:34:12;45256.66;;;-146.17;85.18
52625;BME280;38519;52.540;13.410;2023-08-24T03:36:38;45225.03;;;-146.17;83.79
52625;BME280;38519;52.540;13.410;2023-08-24T03:39:03;45236.88;;;-146.17;83.47
52625;BME280;38519;52.540;13.410;2023-08-24T03:41:29;45246.75;;;-146.17;82.43
52625;BME280;38519;52.540;13.410;2023-08-24T03:43:54;45228.97;;;-146.17;83.30
52625;BME280;38519;52.540;13.410;2023-08-24T03:46:19;45236.88;;;-146.17;82.86
52625;BME280;38519;52.540;13.410;2023-08-24T03:48:44;45256.66;;;-146.17;83.11
52625;BME280;38519;52.540;13.410;2023-08-24T03:51:10;45244.78;;;-146.17;83.93
52625;BME280;38519;52.540;13.410;2023-08-24T03:53:35;45242.81;;;-146.17;83.81
52625;BME280;38519;52.540;13.410;2023-08-24T03:56:00;45250.72;;;-146.17;83.27
52625;BME280;38519;52.540;13.410;2023-08-24T03:58:27;45266.53;;;-146.17;82.40
52625;BME280;38519;52.540;13.410;2023-08-24T04:00:52;45232.94;;;-146.17;82.74
52625;BME280;38519;52.540;13.410;2023-08-24T04:03:19;45217.13;;;-146.17;82.64
52625;BME280;38519;52.540;13.410;2023-08-24T04:05:44;45223.06;;;-146.17;82.88
52625;BME280;38519;52.540;13.410;2023-08-24T04:08:09;45234.91;;;-146.17;81.45
52625;BME280;38519;52.540;13.410;2023-08-24T04:10:34;45219.09;;;-146.17;81.36
52625;BME280;38519;52.540;13.410;2023-08-24T04:13:00;45280.38;;;-146.17;80.46
52625;BME280;38519;52.540;13.410;2023-08-24T04:15:26;45223.06;;;-146.17;79.69
52625;BME280;38519;52.540;13.410;2023-08-24T04:17:51;45254.66;;;-146.17;80.54
52625;BME280;38519;52.540;13.410;2023-08-24T04:20:16;45232.94;;;-146.17;79.53
52625;BME280;38519;52.540;13.410;2023-08-24T04:22:42;45238.84;;;-146.17;78.91
52625;BME280;38519;52.540;13.410;2023-08-24T04:25:07;45236.88;;;-146.17;77.60
52625;BME280;38519;52.540;13.410;2023-08-24T04:27:33;45252.69;;;-146.17;76.62
52625;BME280;38519;52.540;13.410;2023-08-24T04:29:58;45211.19;;;-146.17;76.78
52625;BME280;38519;52.540;13.410;2023-08-24T04:32:24;45228.97;;;-146.17;76.56
52625;BME280;38519;52.540;13.410;2023-08-24T04:34:49;45256.66;;;-146.17;76.83
52625;BME280;38519;52.540;13.410;2023-08-24T04:37:14;45238.84;;;-146.17;75.95
52625;BME280;38519;52.540;13.410;2023-08-24T04:39:39;45234.91;;;-146.17;75.27
52625;BME280;38519;52.540;13.410;2023-08-24T04:42:05;45215.16;;;-146.17;75.09
52625;BME280;38519;52.540;13.410;2023-08-24T04:44:31;45234.91;;;-146.17;75.81
52625;BME280;38519;52.540;13.410;2023-08-24T04:46:57;45213.16;;;-146.17;75.76
52625;BME280;38519;52.540;13.410;2023-08-24T04:49:22;45244.78;;;-146.17;75.75
52625;BME280;38519;52.540;13.410;2023-08-24T04:51:47;45248.75;;;-146.17;76.69
52625;BME280;38519;52.540;13.410;2023-08-24T04:54:12;45207.25;;;-146.17;77.09
52625;BME280;38519;52.540;13.410;2023-08-24T04:56:38;45236.88;;;-146.17;76.78
52625;BME280;38519;52.540;13.410;2023-08-24T04:59:04;45227.00;;;-146.17;75.09
52625;BME280;38519;52.540;13.410;2023-08-24T05:01:29;45203.28;;;-146.17;74.76
52625;BME280;38519;52.540;13.410;2023-08-24T05:03:56;45248.75;;;-146.17;74.05
52625;BME280;38519;52.540;13.410;2023-08-24T05:06:22;45215.16;;;-146.17;73.52
52625;BME280;38519;52.540;13.410;2023-08-24T05:08:47;45213.16;;;-146.17;73.59
52625;BME280;38519;52.540;13.410;2023-08-24T05:11:12;45236.88;;;-146.17;72.77
52625;BME280;38519;52.540;13.410;2023-08-24T05:13:38;45244.78;;;-146.17;74.16
52625;BME280;38519;52.540;13.410;2023-08-24T05:16:04;45199.34;;;-146.17;73.25
52625;BME280;38519;52.540;13.410;2023-08-24T05:18:29;45240.84;;;-146.17;73.36
52625;BME280;38519;52.540;13.410;2023-08-24T05:20:54;45223.06;;;-146.17;73.38
52625;BME280;38519;52.540;13.410;2023-08-24T05:23:19;45221.06;;;-146.17;73.87
52625;BME280;38519;52.540;13.410;2023-08-24T05:25:45;45234.91;;;-146.17;73.98
52625;BME280;38519;52.540;13.410;2023-08-24T05:28:10;45232.94;;;-146.17;73.21
52625;BME280;38519;52.540;13.410;2023-08-24T05:30:35;45232.94;;;-146.17;72.97
52625;BME280;38519;52.540;13.410;2023-08-24T05:33:00;45221.06;;;-146.17;74.02
52625;BME280;38519;52.540;13.410;2023-08-24T05:35:26;45242.81;;;-146.17;73.19
52625;BME280;38519;52.540;13.410;2023-08-24T05:37:52;45236.88;;;-146.17;73.81
52625;BME280;38519;52.540;13.410;2023-08-24T05:40:17;45221.06;;;-146.17;72.67
52625;BME280;38519;52.540;13.410;2023-08-24T05:42:43;45242.81;;;-146.17;72.06
52625;BME280;38519;52.540;13.410;2023-08-24T05:45:08;45228.97;;;-146.17;72.21
52625;BME280;38519;52.540;13.410;2023-08-24T05:47:37;45242.81;;;-146.17;72.72
52625;BME280;38519;52.540;13.410;2023-08-24T05:50:02;45209.22;;;-146.17;72.51
52625;BME280;38519;52.540;13.410;2023-08-24T05:52:28;45228.97;;;-146.17;72.87
52625;BME280;38519;52.540;13.410;2023-08-24T05:54:54;45232.94;;;-146.17;72.93
52625;BME280;38519;52.540;13.410;2023-08-24T05:57:19;45201.31;;;-146.17;73.41
52625;BME280;38519;52.540;13.410;2023-08-24T05:59:44;45240.84;;;-146.17;73.60
52625;BME280;38519;52.540;13.410;2023-08-24T06:02:10;45242.81;;;-146.17;73.70
52625;BME280;38519;52.540;13.410;2023-08-24T06:04:36;45227.00;;;-146.17;73.77
52625;BME280;38519;52.540;13.410;2023-08-24T06:07:01;45232.94;;;-146.17;74.06
52625;BME280;38519;52.540;13.410;2023-08-24T06:09:29;45225.03;;;-146.17;75.09
52625;BME280;38519;52.540;13.410;2023-08-24T06:11:54;45221.06;;;-146.17;74.75
52625;BME280;38519;52.540;13.410;2023-08-24T06:14:21;45244.78;;;-146.17;74.67
52625;BME280;38519;52.540;13.410;2023-08-24T06:16:46;45225.03;;;-146.17;75.33
52625;BME280;38519;52.540;13.410;2023-08-24T06:19:14;45217.13;;;-146.17;75.52
52625;BME280;38519;52.540;13.410;2023-08-24T06:21:40;45232.94;;;-146.17;74.94
52625;BME280;38519;52.540;13.410;2023-08-24T06:24:05;45203.28;;;-146.17;74.60
52625;BME280;38519;52.540;13.410;2023-08-24T06:26:30;45262.56;;;-146.17;74.30
52625;BME280;38519;52.540;13.410;2023-08-24T06:28:55;45244.78;;;-146.17;73.44
52625;BME280;38519;52.540;13.410;2023-08-24T06:31:21;45175.63;;;-146.17;71.93
52625;BME280;38519;52.540;13.410;2023-08-24T06:33:47;45205.25;;;-146.17;71.49
52625;BME280;38519;52.540;13.410;2023-08-24T06:36:12;45201.31;;;-146.17;71.98
52625;BME280;38519;52.540;13.410;2023-08-24T06:38:37;45203.28;;;-146.17;72.83
52625;BME280;38519;52.540;13.410;2023-08-24T06:41:03;45221.06;;;-146.17;72.13
52625;BME280;38519;52.540;13.410;2023-08-24T06:43:28;45203.28;;;-146.17;71.61
52625;BME280;38519;52.540;13.410;2023-08-24T06:45:56;45211.19;;;-146.17;71.87
52625;BME280;38519;52.540;13.410;2023-08-24T06:48:22;45171.66;;;-146.17;71.29
52625;BME280;38519;52.540;13.410;2023-08-24T06:50:48;45195.38;;;-146.17;71.58
52625;BME280;38519;52.540;13.410;2023-08-24T06:53:13;45209.22;;;-146.17;71.18
52625;BME280;38519;52.540;13.410;2023-08-24T06:55:41;45199.34;;;-146.17;69.77
52625;BME280;38519;52.540;13.410;2023-08-24T06:58:09;45209.22;;;-146.17;70.29
52625;BME280;38519;52.540;13.410;2023-08-24T07:00:36;45211.19;;;-146.17;69.79
52625;BME280;38519;52.540;13.410;2023-08-24T07:03:01;45183.53;;;-146.17;68.46
52625;BME280;38519;52.540;13.410;2023-08-24T07:05:27;45195.38;;;-146.17;68.87
52625;BME280;38519;52.540;13.410;2023-08-24T07:07:54;45157.84;;;-146.17;68.17
52625;BME280;38519;52.540;13.410;2023-08-24T07:10:19;45175.63;;;-146.17;68.53
52625;BME280;38519;52.540;13.410;2023-08-24T07:12:47;45189.44;;;-146.17;68.61
52625;BME280;38519;52.540;13.410;2023-08-24T07:15:12;45169.69;;;-146.17;68.97
52625;BME280;38519;52.540;13.410;2023-08-24T07:17:38;45165.75;;;-146.17;67.79
52625;BME280;38519;52.540;13.410;2023-08-24T07:20:04;45159.81;;;-146.17;66.76
52625;BME280;38519;52.540;13.410;2023-08-24T07:22:38;45159.81;;;-146.17;66.09
52625;BME280;38519;52.540;13.410;2023-08-24T07:25:04;45175.63;;;-146.17;65.82
52625;BME280;38519;52.540;13.410;2023-08-24T07:27:31;45163.75;;;-146.17;65.88
52625;BME280;38519;52.540;13.410;2023-08-24T07:29:58;45165.75;;;-146.17;66.06
52625;BME280;38519;52.540;13.410;2023-08-24T07:32:25;45193.41;;;-146.17;66.55
52625;BME280;38519;52.540;13.410;2023-08-24T07:34:51;45191.44;;;-146.17;65.47
52625;BME280;38519;52.540;13.410;2023-08-24T07:37:16;45145.97;;;-146.17;65.91
52625;BME280;38519;52.540;13.410;2023-08-24T07:39:41;45151.91;;;-146.17;65.60
52625;BME280;38519;52.540;13.410;2023-08-24T07:42:07;45177.59;;;-146.17;65.74
52625;BME280;38519;52.540;13.410;2023-08-24T07:44:32;45149.94;;;-146.17;65.76
52625;BME280;38519;52.540;13.410;2023-08-24T07:46:58;45161.78;;;-146.17;66.34
52625;BME280;38519;52.540;13.410;2023-08-24T07:49:23;45132.16;;;-146.17;65.87
52625;BME280;38519;52.540;13.410;2023-08-24T07:51:48;45138.06;;;-146.17;65.96
52625;BME280;38519;52.540;13.410;2023-08-24T07:54:13;45163.75;;;-146.17;65.76
52625;BME280;38519;52.540;13.410;2023-08-24T07:56:39;45098.56;;;-146.17;66.64
52625;BME280;38519;52.540;13.410;2023-08-24T07:59:04;45130.16;;;-146.17;67.71
52625;BME280;38519;52.540;13.410;2023-08-24T08:01:30;45118.31;;;-146.17;66.70
52625;BME280;38519;52.540;13.410;2023-08-24T08:03:55;45132.16;;;-146.17;68.17
52625;BME280;38519;52.540;13.410;2023-08-24T08:06:21;45159.81;;;-146.17;69.40
52625;BME280;38519;52.540;13.410;2023-08-24T08:08:47;45104.47;;;-146.17;69.91
52625;BME280;38519;52.540;13.410;2023-08-24T08:11:12;45098.56;;;-146.17;68.87
52625;BME280;38519;52.540;13.410;2023-08-24T08:13:37;45128.19;;;-146.17;68.97
52625;BME280;38519;52.540;13.410;2023-08-24T08:16:06;45094.59;;;-146.17;70.41
52625;BME280;38519;52.540;13.410;2023-08-24T08:18:48;45062.97;;;-146.17;70.98
52625;BME280;38519;52.540;13.410;2023-08-24T08:21:16;45112.38;;;-146.17;70.52
52625;BME280;38519;52.540;13.410;2023-08-24T08:23:45;45088.66;;;-146.17;71.70
52625;BME280;38519;52.540;13.410;2023-08-24T08:26:11;45106.44;;;-146.17;71.69
52625;BME280;38519;52.540;13.410;2023-08-24T08:28:37;45096.56;;;-146.17;72.65
52625;BME280;38519;52.540;13.410;2023-08-24T08:31:02;45090.66;;;-146.17;73.62
52625;BME280;38519;52.540;13.410;2023-08-24T08:33:28;45080.75;;;-146.17;72.56
52625;BME280;38519;52.540;13.410;2023-08-24T08:35:55;45110.41;;;-146.17;73.52
52625;BME280;38519;52.540;13.410;2023-08-24T08:38:20;45126.22;;;-146.17;73.38
52625;BME280;38519;52.540;13.410;2023-08-24T08:41:07;45094.59;;;-146.17;73.06
52625;BME280;38519;52.540;13.410;2023-08-24T08:43:32;45114.34;;;-146.17;73.24
52625;BME280;38519;52.540;13.410;2023-08-24T08:45:58;45102.50;;;-146.17;73.12
52625;BME280;38519;52.540;13.410;2023-08-24T08:48:23;45082.75;;;-146.17;73.43
52625;BME280;38519;52.540;13.410;2023-08-24T08:50:49;45100.53;;;-146.17;72.37
52625;BME280;38519;52.540;13.410;2023-08-24T08:53:16;45102.50;;;-146.17;72.25
52625;BME280;38519;52.540;13.410;2023-08-24T08:55:41;45094.59;;;-146.17;72.10
52625;BME280;38519;52.540;13.410;2023-08-24T08:58:11;45092.63;;;-146.17;71.98
52625;BME280;38519;52.540;13.410;2023-08-24T09:00:36;45112.38;;;-146.17;72.54
52625;BME280;38519;52.540;13.410;2023-08-24T09:03:01;45100.53;;;-146.17;72.92
52625;BME280;38519;52.540;13.410;2023-08-24T09:05:29;45090.66;;;-146.17;73.37
52625;BME280;38519;52.540;13.410;2023-08-24T09:07:54;45080.75;;;-146.17;73.12
52625;BME280;38519;52.540;13.410;2023-08-24T09:10:21;45114.34;;;-146.17;73.13
52625;BME280;38519;52.540;13.410;2023-08-24T09:12:46;45078.78;;;-146.17;73.01
52625;BME280;38519;52.540;13.410;2023-08-24T09:15:11;45104.47;;;-146.17;72.50
52625;BME280;38519;52.540;13.410;2023-08-24T09:17:42;45066.94;;;-146.17;73.58
52625;BME280;38519;52.540;13.410;2023-08-24T09:20:08;45128.19;;;-146.17;74.20
52625;BME280;38519;52.540;13.410;2023-08-24T09:22:35;45108.44;;;-146.17;74.85
52625;BME280;38519;52.540;13.410;2023-08-24T09:25:00;45100.53;;;-146.17;74.10
52625;BME280;38519;52.540;13.410;2023-08-24T09:27:30;45102.50;;;-146.17;75.46
52625;BME280;38519;52.540;13.410;2023-08-24T09:29:57;45130.16;;;-146.17;73.95
52625;BME280;38519;52.540;13.410;2023-08-24T09:32:22;45090.66;;;-146.17;74.49
52625;BME280;38519;52.540;13.410;2023-08-24T09:34:48;45094.59;;;-146.17;73.67
52625;BME280;38519;52.540;13.410;2023-08-24T09:37:15;45072.84;;;-146.17;73.88
52625;BME280;38519;52.540;13.410;2023-08-24T09:39:41;45102.50;;;-146.17;74.18
52625;BME280;38519;52.540;13.410;2023-08-24T09:42:07;45078.78;;;-146.17;74.93
52625;BME280;38519;52.540;13.410;2023-08-24T09:44:33;45064.97;;;-146.17;74.87
52625;BME280;38519;52.540;13.410;2023-08-24T09:46:59;45061.00;;;-146.17;75.12
52625;BME280;38519;52.540;13.410;2023-08-24T09:49:25;45084.72;;;-146.17;75.67
52625;BME280;38519;52.540;13.410;2023-08-24T09:51:55;45033.34;;;-146.17;74.55
52625;BME280;38519;52.540;13.410;2023-08-24T09:54:21;45072.84;;;-146.17;74.10
52625;BME280;38519;52.540;13.410;2023-08-24T09:56:48;45037.28;;;-146.17;76.20
52625;BME280;38519;52.540;13.410;2023-08-24T09:59:16;45084.72;;;-146.17;75.39
52625;BME280;38519;52.540;13.410;2023-08-24T10:01:47;45070.88;;;-146.17;75.08
52625;BME280;38519;52.540;13.410;2023-08-24T10:04:14;45066.94;;;-146.17;75.81
52625;BME280;38519;52.540;13.410;2023-08-24T10:06:39;45066.94;;;-146.17;75.33
52625;BME280;38519;52.540;13.410;2023-08-24T10:09:18;45061.00;;;-146.17;75.67
52625;BME280;38519;52.540;13.410;2023-08-24T10:11:49;45055.06;;;-146.17;76.58
52625;BME280;38519;52.540;13.410;2023-08-24T10:14:21;45011.59;;;-146.17;75.55
52625;BME280;38519;52.540;13.410;2023-08-24T10:16:48;45019.50;;;-146.17;74.53
52625;BME280;38519;52.540;13.410;2023-08-24T10:19:13;45025.44;;;-146.17;75.43
52625;BME280;38519;52.540;13.410;2023-08-24T10:21:39;45039.25;;;-146.17;76.06
52625;BME280;38519;52.540;13.410;2023-08-24T10:24:05;45029.38;;;-146.17;75.41
52625;BME280;38519;52.540;13.410;2023-08-24T10:26:32;44995.78;;;-146.17;76.26
52625;BME280;38519;52.540;13.410;2023-08-24T10:28:57;45017.53;;;-146.17;74.92
52625;BME280;38519;52.540;13.410;2023-08-24T10:31:23;45005.66;;;-146.17;74.57
52625;BME280;38519;52.540;13.410;2023-08-24T10:33:48;45003.69;;;-146.17;77.33
52625;BME280;38519;52.540;13.410;2023-08-24T10:36:14;45015.56;;;-146.17;76.12
52625;BME280;38519;52.540;13.410;2023-08-24T10:38:40;45031.34;;;-146.17;74.78
52625;BME280;38519;52.540;13.410;2023-08-24T10:41:10;44999.75;;;-146.17;75.89
52625;BME280;38519;52.540;13.410;2023-08-24T10:43:39;44999.75;;;-146.17;74.92
52625;BME280;38519;52.540;13.410;2023-08-24T10:46:11;45003.69;;;-146.17;76.01
52625;BME280;38519;52.540;13.410;2023-08-24T10:53:55;45013.56;;;-146.17;75.73
52625;BME280;38519;52.540;13.410;2023-08-24T10:56:21;44979.97;;;-146.17;76.18
52625;BME280;38519;52.540;13.410;2023-08-24T10:58:47;45011.59;;;-146.17;75.58
52625;BME280;38519;52.540;13.410;2023-08-24T11:01:31;44976.03;;;-146.17;75.87
52625;BME280;38519;52.540;13.410;2023-08-24T11:03:58;44972.06;;;-146.17;75.55
52625;BME280;38519;52.540;13.410;2023-08-24T11:06:25;44999.75;;;-146.17;75.44
52625;BME280;38519;52.540;13.410;2023-08-24T11:09:05;44993.81;;;-146.17;74.79
52625;BME280;38519;52.540;13.410;2023-08-24T11:11:31;45009.63;;;-146.17;75.70
52625;BME280;38519;52.540;13.410;2023-08-24T11:14:15;44956.28;;;-146.17;76.77
52625;BME280;38519;52.540;13.410;2023-08-24T11:16:44;44962.19;;;-146.17;76.49
52625;BME280;38519;52.540;13.410;2023-08-24T11:19:13;44970.09;;;-146.17;75.52
52625;BME280;38519;52.540;13.410;2023-08-24T11:21:40;44936.50;;;-146.17;75.79
52625;BME280;38519;52.540;13.410;2023-08-24T11:24:06;44966.16;;;-146.17;75.24
52625;BME280;38519;52.540;13.410;2023-08-24T11:26:31;44944.41;;;-146.17;77.00
52625;BME280;38519;52.540;13.410;2023-08-24T11:28:56;44938.47;;;-146.17;75.47
52625;BME280;38519;52.540;13.410;2023-08-24T11:31:26;44944.41;;;-146.17;74.77
52625;BME280;38519;52.540;13.410;2023-08-24T11:33:54;44956.28;;;-146.17;75.03
52625;BME280;38519;52.540;13.410;2023-08-24T11:36:24;44908.84;;;-146.17;75.58
52625;BME280;38519;52.540;13.410;2023-08-24T11:38:51;44942.44;;;-146.17;75.07
52625;BME280;38519;52.540;13.410;2023-08-24T11:41:16;44968.13;;;-146.17;74.41
52625;BME280;38519;52.540;13.410;2023-08-24T11:43:42;44924.66;;;-146.17;74.01
52625;BME280;38519;52.540;13.410;2023-08-24T11:46:08;45001.72;;;-146.17;76.04
52625;BME280;38519;52.540;13.410;2023-08-24T11:48:33;44974.06;;;-146.17;76.06
52625;BME280;38519;52.540;13.410;2023-08-24T11:50:58;44983.94;;;-146.17;76.28
52625;BME280;38519;52.540;13.410;2023-08-24T11:53:24;45011.59;;;-146.17;75.96
52625;BME280;38519;52.540;13.410;2023-08-24T11:55:52;44972.06;;;-146.17;76.91
52625;BME280;38519;52.540;13.410;2023-08-24T11:58:17;44960.22;;;-146.17;75.84
52625;BME280;38519;52.540;13.410;2023-08-24T12:00:43;44956.28;;;-146.17;76.47
52625;BME280;38519;52.540;13.410;2023-08-24T12:03:08;44924.66;;;-146.17;75.01
52625;BME280;38519;52.540;13.410;2023-08-24T12:05:34;44964.16;;;-146.17;75.78
52625;BME280;38519;52.540;13.410;2023-08-24T12:08:00;44960.22;;;-146.17;75.75
52625;BME280;38519;52.540;13.410;2023-08-24T12:10:25;44944.41;;;-146.17;75.96
52625;BME280;38519;52.540;13.410;2023-08-24T12:13:00;44912.78;;;-146.17;73.84
52625;BME280;38519;52.540;13.410;2023-08-24T12:15:27;44940.47;;;-146.17;74.70
52625;BME280;38519;52.540;13.410;2023-08-24T12:17:53;44928.59;;;-146.17;74.67
52625;BME280;38519;52.540;13.410;2023-08-24T12:20:19;44900.94;;;-146.17;74.60
52625;BME280;38519;52.540;13.410;2023-08-24T12:22:50;44922.69;;;-146.17;74.77
52625;BME280;38519;52.540;13.410;2023-08-24T12:25:16;44914.78;;;-146.17;72.87
52625;BME280;38519;52.540;13.410;2023-08-24T12:27:42;44920.69;;;-146.17;74.98
52625;BME280;38519;52.540;13.410;2023-08-24T12:30:07;44936.50;;;-146.17;74.78
52625;BME280;38519;52.540;13.410;2023-08-24T12:32:45;44924.66;;;-146.17;74.90
52625;BME280;38519;52.540;13.410;2023-08-24T12:35:11;44964.16;;;-146.17;74.48
52625;BME280;38519;52.540;13.410;2023-08-24T12:37:37;44938.47;;;-146.17;73.95